sensor_id;sensor_type;location;lat;lon;timestamp;P1;durP1;ratioP1;P2;durP2;ratioP2
48823;SDS011;34640;53.590;10.054;2024-03-23T00:54:31;35.35;;;5.43;;
48823;SDS011;34640;53.590;10.054;2024-03-23T00:57:03;33.30;;;5.53;;
48823;SDS011;34640;53.590;10.054;2024-03-23T00:59:35;42.65;;;4.38;;
48823;SDS011;34640;53.590;10.054;2024-03-23T01:02:06;34.85;;;4.82;;
48823;SDS011;34640;53.590;10.054;2024-03-23T01:04:38;42.13;;;4.75;;
48823;SDS011;34640;53.590;10.054;2024-03-23T01:07:10;34.90;;;4.03;;
48823;SDS011;34640;53.590;10.054;2024-03-23T01:09:42;38.13;;;5.07;;
48823;SDS011;34640;53.590;10.054;2024-03-23T01:12:14;24.85;;;3.90;;
48823;SDS011;34640;53.590;10.054;2024-03-23T01:14:45;36.60;;;3.95;;
48823;SDS011;34640;53.590;10.054;2024-03-23T01:17:17;34.47;;;4.05;;
48823;SDS011;34640;53.590;10.054;2024-03-23T01:19:48;32.33;;;4.13;;
48823;SDS011;34640;53.590;10.054;2024-03-23T01:22:21;30.67;;;5.15;;
48823;SDS011;34640;53.590;10.054;2024-03-23T01:24:54;29.88;;;4.85;;
48823;SDS011;34640;53.590;10.054;2024-03-23T01:27:26;37.00;;;4.70;;
48823;SDS011;34640;53.590;10.054;2024-03-23T01:29:58;30.42;;;4.32;;
48823;SDS011;34640;53.590;10.054;2024-03-23T01:32:30;39.67;;;3.95;;
48823;SDS011;34640;53.590;10.054;2024-03-23T01:35:01;32.22;;;3.63;;
48823;SDS011;34640;53.590;10.054;2024-03-23T01:37:33;31.17;;;3.90;;
48823;SDS011;34640;53.590;10.054;2024-03-23T01:40:06;25.48;;;4.03;;
48823;SDS011;34640;53.590;10.054;2024-03-23T01:42:39;35.45;;;4.32;;
48823;SDS011;34640;53.590;10.054;2024-03-23T01:45:10;36.58;;;5.32;;
48823;SDS011;34640;53.590;10.054;2024-03-23T01:47:44;25.05;;;3.58;;
48823;SDS011;34640;53.590;10.054;2024-03-23T01:50:15;40.55;;;3.97;;
48823;SDS011;34640;53.590;10.054;2024-03-23T01:52:47;30.83;;;3.75;;
48823;SDS011;34640;53.590;10.054;2024-03-23T01:55:20;37.35;;;5.38;;
48823;SDS011;34640;53.590;10.054;2024-03-23T01:57:52;30.13;;;4.63;;
48823;SDS011;34640;53.590;10.054;2024-03-23T02:00:23;28.98;;;3.75;;
48823;SDS011;34640;53.590;10.054;2024-03-23T02:02:58;28.95;;;5.05;;
48823;SDS011;34640;53.590;10.054;2024-03-23T02:05:29;30.02;;;4.93;;
48823;SDS011;34640;53.590;10.054;2024-03-23T02:08:01;39.20;;;4.15;;
48823;SDS011;34640;53.590;10.054;2024-03-23T02:10:34;29.13;;;4.05;;
48823;SDS011;34640;53.590;10.054;2024-03-23T02:13:06;40.17;;;4.47;;
48823;SDS011;34640;53.590;10.054;2024-03-23T02:15:38;31.08;;;5.65;;
48823;SDS011;34640;53.590;10.054;2024-03-23T02:18:10;29.83;;;4.57;;
48823;SDS011;34640;53.590;10.054;2024-03-23T02:20:42;41.40;;;5.00;;
48823;SDS011;34640;53.590;10.054;2024-03-23T02:23:16;32.25;;;4.63;;
48823;SDS011;34640;53.590;10.054;2024-03-23T02:25:48;41.08;;;5.30;;
48823;SDS011;34640;53.590;10.054;2024-03-23T02:28:20;28.70;;;3.72;;
48823;SDS011;34640;53.590;10.054;2024-03-23T02:30:52;30.15;;;3.90;;
48823;SDS011;34640;53.590;10.054;2024-03-23T02:33:24;44.40;;;5.82;;
48823;SDS011;34640;53.590;10.054;2024-03-23T02:35:56;50.58;;;6.95;;
48823;SDS011;34640;53.590;10.054;2024-03-23T02:38:30;30.60;;;4.63;;
48823;SDS011;34640;53.590;10.054;2024-03-23T02:41:02;30.88;;;3.95;;
48823;SDS011;34640;53.590;10.054;2024-03-23T02:43:36;30.40;;;4.65;;
48823;SDS011;34640;53.590;10.054;2024-03-23T02:46:07;37.45;;;5.88;;
48823;SDS011;34640;53.590;10.054;2024-03-23T02:48:39;45.70;;;4.68;;
48823;SDS011;34640;53.590;10.054;2024-03-23T02:51:11;28.85;;;4.75;;
48823;SDS011;34640;53.590;10.054;2024-03-23T02:53:44;29.88;;;4.45;;
48823;SDS011;34640;53.590;10.054;2024-03-23T02:56:15;29.50;;;5.20;;
48823;SDS011;34640;53.590;10.054;2024-03-23T02:58:48;29.98;;;3.90;;
48823;SDS011;34640;53.590;10.054;2024-03-23T03:01:19;28.13;;;3.95;;
48823;SDS011;34640;53.590;10.054;2024-03-23T03:03:51;23.65;;;3.53;;
48823;SDS011;34640;53.590;10.054;2024-03-23T03:06:29;33.17;;;4.72;;
48823;SDS011;34640;53.590;10.054;2024-03-23T03:09:04;34.90;;;3.95;;
48823;SDS011;34640;53.590;10.054;2024-03-23T03:11:35;37.85;;;4.25;;
48823;SDS011;34640;53.590;10.054;2024-03-23T03:14:07;36.05;;;6.03;;
48823;SDS011;34640;53.590;10.054;2024-03-23T03:16:38;36.45;;;5.47;;
48823;SDS011;34640;53.590;10.054;2024-03-23T03:19:10;37.78;;;5.32;;
48823;SDS011;34640;53.590;10.054;2024-03-23T03:21:42;30.67;;;5.35;;
48823;SDS011;34640;53.590;10.054;2024-03-23T03:24:15;24.90;;;3.75;;
48823;SDS011;34640;53.590;10.054;2024-03-23T03:26:47;37.08;;;4.15;;
48823;SDS011;34640;53.590;10.054;2024-03-23T03:29:20;25.33;;;4.95;;
48823;SDS011;34640;53.590;10.054;2024-03-23T03:31:51;40.08;;;4.28;;
48823;SDS011;34640;53.590;10.054;2024-03-23T03:34:23;35.05;;;4.13;;
48823;SDS011;34640;53.590;10.054;2024-03-23T03:36:54;37.88;;;4.72;;
48823;SDS011;34640;53.590;10.054;2024-03-23T03:39:27;34.47;;;3.88;;
48823;SDS011;34640;53.590;10.054;2024-03-23T03:42:00;22.45;;;3.75;;
48823;SDS011;34640;53.590;10.054;2024-03-23T03:44:37;32.08;;;4.15;;
48823;SDS011;34640;53.590;10.054;2024-03-23T03:47:08;27.88;;;3.60;;
48823;SDS011;34640;53.590;10.054;2024-03-23T03:49:40;30.00;;;3.67;;
48823;SDS011;34640;53.590;10.054;2024-03-23T03:52:11;30.60;;;3.58;;
48823;SDS011;34640;53.590;10.054;2024-03-23T03:54:46;36.45;;;4.25;;
48823;SDS011;34640;53.590;10.054;2024-03-23T03:57:17;32.47;;;4.32;;
48823;SDS011;34640;53.590;10.054;2024-03-23T03:59:49;40.60;;;4.38;;
48823;SDS011;34640;53.590;10.054;2024-03-23T04:02:20;31.85;;;4.70;;
48823;SDS011;34640;53.590;10.054;2024-03-23T04:04:52;26.15;;;4.05;;
48823;SDS011;34640;53.590;10.054;2024-03-23T04:07:24;32.45;;;4.10;;
48823;SDS011;34640;53.590;10.054;2024-03-23T04:09:57;26.60;;;3.60;;
48823;SDS011;34640;53.590;10.054;2024-03-23T04:12:28;29.20;;;3.92;;
48823;SDS011;34640;53.590;10.054;2024-03-23T04:15:00;29.20;;;4.10;;
48823;SDS011;34640;53.590;10.054;2024-03-23T04:17:34;28.52;;;4.20;;
48823;SDS011;34640;53.590;10.054;2024-03-23T04:20:06;33.50;;;4.22;;
48823;SDS011;34640;53.590;10.054;2024-03-23T04:22:41;34.15;;;4.10;;
48823;SDS011;34640;53.590;10.054;2024-03-23T04:25:14;31.33;;;5.10;;
48823;SDS011;34640;53.590;10.054;2024-03-23T04:27:46;28.27;;;4.97;;
48823;SDS011;34640;53.590;10.054;2024-03-23T04:30:18;35.75;;;4.93;;
48823;SDS011;34640;53.590;10.054;2024-03-23T04:32:49;28.85;;;3.53;;
48823;SDS011;34640;53.590;10.054;2024-03-23T04:35:22;28.95;;;3.50;;
48823;SDS011;34640;53.590;10.054;2024-03-23T04:37:55;30.55;;;3.88;;
48823;SDS011;34640;53.590;10.054;2024-03-23T04:40:30;30.45;;;3.55;;
48823;SDS011;34640;53.590;10.054;2024-03-23T04:43:02;31.33;;;4.00;;
48823;SDS011;34640;53.590;10.054;2024-03-23T04:45:35;26.85;;;3.40;;
48823;SDS011;34640;53.590;10.054;2024-03-23T04:48:07;30.63;;;4.10;;
48823;SDS011;34640;53.590;10.054;2024-03-23T04:50:39;34.72;;;4.57;;
48823;SDS011;34640;53.590;10.054;2024-03-23T04:53:12;28.20;;;3.70;;
48823;SDS011;34640;53.590;10.054;2024-03-23T04:55:45;34.72;;;4.13;;
48823;SDS011;34640;53.590;10.054;2024-03-23T04:58:17;28.70;;;4.10;;
48823;SDS011;34640;53.590;10.054;2024-03-23T05:00:48;29.73;;;3.95;;
48823;SDS011;34640;53.590;10.054;2024-03-23T05:03:25;23.77;;;3.28;;
48823;SDS011;34640;53.590;10.054;2024-03-23T05:05:57;25.08;;;3.65;;
48823;SDS011;34640;53.590;10.054;2024-03-23T05:08:29;34.47;;;4.07;;
48823;SDS011;34640;53.590;10.054;2024-03-23T05:11:02;34.15;;;3.90;;
48823;SDS011;34640;53.590;10.054;2024-03-23T05:13:36;31.38;;;4.35;;
48823;SDS011;34640;53.590;10.054;2024-03-23T05:16:07;25.15;;;3.67;;
48823;SDS011;34640;53.590;10.054;2024-03-23T05:18:39;34.00;;;5.72;;
48823;SDS011;34640;53.590;10.054;2024-03-23T05:21:10;26.73;;;4.43;;
48823;SDS011;34640;53.590;10.054;2024-03-23T05:23:42;36.03;;;3.50;;
48823;SDS011;34640;53.590;10.054;2024-03-23T05:26:15;28.00;;;3.65;;
48823;SDS011;34640;53.590;10.054;2024-03-23T05:28:47;31.70;;;3.30;;
48823;SDS011;34640;53.590;10.054;2024-03-23T05:31:24;28.65;;;4.25;;
48823;SDS011;34640;53.590;10.054;2024-03-23T05:33:56;28.38;;;3.90;;
48823;SDS011;34640;53.590;10.054;2024-03-23T05:36:28;23.08;;;3.88;;
48823;SDS011;34640;53.590;10.054;2024-03-23T05:39:00;32.67;;;3.78;;
48823;SDS011;34640;53.590;10.054;2024-03-23T05:41:34;28.33;;;3.38;;
48823;SDS011;34640;53.590;10.054;2024-03-23T05:44:06;33.33;;;4.00;;
48823;SDS011;34640;53.590;10.054;2024-03-23T05:46:37;29.80;;;4.57;;
48823;SDS011;34640;53.590;10.054;2024-03-23T05:49:10;33.50;;;3.85;;
48823;SDS011;34640;53.590;10.054;2024-03-23T05:51:41;27.85;;;5.22;;
48823;SDS011;34640;53.590;10.054;2024-03-23T05:54:13;30.15;;;4.85;;
48823;SDS011;34640;53.590;10.054;2024-03-23T05:56:46;22.73;;;3.08;;
48823;SDS011;34640;53.590;10.054;2024-03-23T05:59:18;22.42;;;3.03;;
48823;SDS011;34640;53.590;10.054;2024-03-23T06:01:49;29.42;;;3.42;;
48823;SDS011;34640;53.590;10.054;2024-03-23T06:04:21;26.80;;;3.40;;
48823;SDS011;34640;53.590;10.054;2024-03-23T06:06:53;27.15;;;4.00;;
48823;SDS011;34640;53.590;10.054;2024-03-23T06:09:25;31.10;;;3.58;;
48823;SDS011;34640;53.590;10.054;2024-03-23T06:11:57;24.88;;;2.90;;
48823;SDS011;34640;53.590;10.054;2024-03-23T06:14:30;24.45;;;3.47;;
48823;SDS011;34640;53.590;10.054;2024-03-23T06:17:03;30.83;;;4.82;;
48823;SDS011;34640;53.590;10.054;2024-03-23T06:19:36;31.30;;;3.70;;
48823;SDS011;34640;53.590;10.054;2024-03-23T06:22:07;26.65;;;3.00;;
48823;SDS011;34640;53.590;10.054;2024-03-23T06:24:39;28.38;;;4.07;;
48823;SDS011;34640;53.590;10.054;2024-03-23T06:27:11;26.42;;;2.92;;
48823;SDS011;34640;53.590;10.054;2024-03-23T06:29:44;21.90;;;3.22;;
48823;SDS011;34640;53.590;10.054;2024-03-23T06:32:15;26.02;;;3.72;;
48823;SDS011;34640;53.590;10.054;2024-03-23T06:34:47;19.80;;;2.97;;
48823;SDS011;34640;53.590;10.054;2024-03-23T06:37:18;25.48;;;3.05;;
48823;SDS011;34640;53.590;10.054;2024-03-23T06:39:50;26.10;;;3.25;;
48823;SDS011;34640;53.590;10.054;2024-03-23T06:42:23;25.90;;;3.20;;
48823;SDS011;34640;53.590;10.054;2024-03-23T06:44:55;26.42;;;4.03;;
48823;SDS011;34640;53.590;10.054;2024-03-23T06:47:26;26.25;;;3.55;;
48823;SDS011;34640;53.590;10.054;2024-03-23T06:49:58;16.27;;;3.25;;
48823;SDS011;34640;53.590;10.054;2024-03-23T06:52:32;23.45;;;2.60;;
48823;SDS011;34640;53.590;10.054;2024-03-23T06:55:04;32.47;;;3.72;;
48823;SDS011;34640;53.590;10.054;2024-03-23T06:57:37;30.48;;;3.70;;
48823;SDS011;34640;53.590;10.054;2024-03-23T07:00:10;26.08;;;3.30;;
48823;SDS011;34640;53.590;10.054;2024-03-23T07:02:43;23.70;;;3.60;;
48823;SDS011;34640;53.590;10.054;2024-03-23T07:05:16;26.40;;;4.63;;
48823;SDS011;34640;53.590;10.054;2024-03-23T07:07:47;22.92;;;3.80;;
48823;SDS011;34640;53.590;10.054;2024-03-23T07:10:19;31.63;;;3.35;;
48823;SDS011;34640;53.590;10.054;2024-03-23T07:12:52;15.43;;;3.10;;
48823;SDS011;34640;53.590;10.054;2024-03-23T07:15:24;29.48;;;3.60;;
48823;SDS011;34640;53.590;10.054;2024-03-23T07:17:55;15.95;;;2.92;;
48823;SDS011;34640;53.590;10.054;2024-03-23T07:20:27;27.48;;;4.68;;
48823;SDS011;34640;53.590;10.054;2024-03-23T07:23:01;28.80;;;4.50;;
48823;SDS011;34640;53.590;10.054;2024-03-23T07:25:33;26.45;;;3.85;;
48823;SDS011;34640;53.590;10.054;2024-03-23T07:28:05;28.00;;;2.97;;
48823;SDS011;34640;53.590;10.054;2024-03-23T07:30:39;18.17;;;3.13;;
48823;SDS011;34640;53.590;10.054;2024-03-23T07:33:11;28.98;;;3.65;;
48823;SDS011;34640;53.590;10.054;2024-03-23T07:35:43;24.75;;;3.80;;
48823;SDS011;34640;53.590;10.054;2024-03-23T07:38:14;25.35;;;3.08;;
48823;SDS011;34640;53.590;10.054;2024-03-23T07:40:46;21.05;;;3.22;;
48823;SDS011;34640;53.590;10.054;2024-03-23T07:43:18;27.73;;;3.75;;
48823;SDS011;34640;53.590;10.054;2024-03-23T07:45:51;24.17;;;3.75;;
48823;SDS011;34640;53.590;10.054;2024-03-23T07:48:24;18.67;;;3.38;;
48823;SDS011;34640;53.590;10.054;2024-03-23T07:51:00;22.48;;;4.13;;
48823;SDS011;34640;53.590;10.054;2024-03-23T07:53:32;21.83;;;3.10;;
48823;SDS011;34640;53.590;10.054;2024-03-23T07:56:05;25.58;;;3.20;;
48823;SDS011;34640;53.590;10.054;2024-03-23T07:58:38;24.33;;;5.35;;
48823;SDS011;34640;53.590;10.054;2024-03-23T08:01:13;16.27;;;3.05;;
48823;SDS011;34640;53.590;10.054;2024-03-23T08:03:46;26.52;;;3.35;;
48823;SDS011;34640;53.590;10.054;2024-03-23T08:06:19;25.65;;;4.57;;
48823;SDS011;34640;53.590;10.054;2024-03-23T08:08:52;28.67;;;3.35;;
48823;SDS011;34640;53.590;10.054;2024-03-23T08:11:31;26.40;;;3.20;;
48823;SDS011;34640;53.590;10.054;2024-03-23T08:14:04;22.38;;;3.60;;
48823;SDS011;34640;53.590;10.054;2024-03-23T08:16:36;22.27;;;3.17;;
48823;SDS011;34640;53.590;10.054;2024-03-23T08:19:08;19.45;;;2.85;;
48823;SDS011;34640;53.590;10.054;2024-03-23T08:21:40;21.05;;;3.10;;
48823;SDS011;34640;53.590;10.054;2024-03-23T08:24:11;19.52;;;3.05;;
48823;SDS011;34640;53.590;10.054;2024-03-23T08:26:43;26.05;;;3.83;;
48823;SDS011;34640;53.590;10.054;2024-03-23T08:29:15;25.13;;;3.72;;
48823;SDS011;34640;53.590;10.054;2024-03-23T08:31:47;20.65;;;2.97;;
48823;SDS011;34640;53.590;10.054;2024-03-23T08:34:19;25.85;;;5.28;;
48823;SDS011;34640;53.590;10.054;2024-03-23T08:36:51;22.33;;;3.22;;
48823;SDS011;34640;53.590;10.054;2024-03-23T08:39:23;25.30;;;3.45;;
48823;SDS011;34640;53.590;10.054;2024-03-23T08:41:56;20.25;;;3.00;;
48823;SDS011;34640;53.590;10.054;2024-03-23T08:44:29;30.83;;;3.70;;
48823;SDS011;34640;53.590;10.054;2024-03-23T08:47:01;18.83;;;3.10;;
48823;SDS011;34640;53.590;10.054;2024-03-23T08:49:32;22.45;;;2.95;;
48823;SDS011;34640;53.590;10.054;2024-03-23T08:52:04;20.33;;;2.92;;
48823;SDS011;34640;53.590;10.054;2024-03-23T08:54:35;21.00;;;2.50;;
48823;SDS011;34640;53.590;10.054;2024-03-23T08:57:08;23.80;;;3.08;;
48823;SDS011;34640;53.590;10.054;2024-03-23T08:59:40;20.83;;;2.78;;
48823;SDS011;34640;53.590;10.054;2024-03-23T09:02:13;16.15;;;2.65;;
48823;SDS011;34640;53.590;10.054;2024-03-23T09:04:45;25.05;;;3.30;;
48823;SDS011;34640;53.590;10.054;2024-03-23T09:07:17;21.45;;;3.28;;
48823;SDS011;34640;53.590;10.054;2024-03-23T09:09:48;18.80;;;3.08;;
48823;SDS011;34640;53.590;10.054;2024-03-23T09:12:20;20.52;;;2.88;;
48823;SDS011;34640;53.590;10.054;2024-03-23T09:14:53;16.25;;;2.42;;
48823;SDS011;34640;53.590;10.054;2024-03-23T09:17:27;24.55;;;2.92;;
48823;SDS011;34640;53.590;10.054;2024-03-23T09:19:58;17.50;;;2.90;;
48823;SDS011;34640;53.590;10.054;2024-03-23T09:22:30;17.65;;;2.78;;
48823;SDS011;34640;53.590;10.054;2024-03-23T09:25:02;16.80;;;2.30;;
48823;SDS011;34640;53.590;10.054;2024-03-23T09:27:36;16.08;;;2.63;;
48823;SDS011;34640;53.590;10.054;2024-03-23T09:30:09;16.30;;;2.67;;
48823;SDS011;34640;53.590;10.054;2024-03-23T09:32:43;17.23;;;2.00;;
48823;SDS011;34640;53.590;10.054;2024-03-23T09:35:15;14.23;;;2.85;;
48823;SDS011;34640;53.590;10.054;2024-03-23T09:37:47;13.00;;;2.08;;
48823;SDS011;34640;53.590;10.054;2024-03-23T09:40:18;15.20;;;2.30;;
48823;SDS011;34640;53.590;10.054;2024-03-23T09:42:51;14.23;;;2.58;;
48823;SDS011;34640;53.590;10.054;2024-03-23T09:45:26;16.33;;;2.33;;
48823;SDS011;34640;53.590;10.054;2024-03-23T09:47:59;14.73;;;2.85;;
48823;SDS011;34640;53.590;10.054;2024-03-23T09:50:32;15.35;;;2.50;;
48823;SDS011;34640;53.590;10.054;2024-03-23T09:53:03;14.73;;;2.25;;
48823;SDS011;34640;53.590;10.054;2024-03-23T09:55:36;15.18;;;2.33;;
48823;SDS011;34640;53.590;10.054;2024-03-23T09:58:08;19.27;;;2.67;;
48823;SDS011;34640;53.590;10.054;2024-03-23T10:00:45;19.20;;;2.45;;
48823;SDS011;34640;53.590;10.054;2024-03-23T10:03:16;19.75;;;2.75;;
48823;SDS011;34640;53.590;10.054;2024-03-23T10:05:58;17.55;;;2.55;;
48823;SDS011;34640;53.590;10.054;2024-03-23T10:08:31;15.75;;;2.38;;
48823;SDS011;34640;53.590;10.054;2024-03-23T10:11:12;19.83;;;2.13;;
48823;SDS011;34640;53.590;10.054;2024-03-23T10:13:46;14.35;;;2.20;;
48823;SDS011;34640;53.590;10.054;2024-03-23T10:16:23;16.63;;;3.13;;
48823;SDS011;34640;53.590;10.054;2024-03-23T10:18:55;14.88;;;2.58;;
48823;SDS011;34640;53.590;10.054;2024-03-23T10:21:27;21.38;;;3.15;;
48823;SDS011;34640;53.590;10.054;2024-03-23T10:23:58;17.90;;;2.72;;
48823;SDS011;34640;53.590;10.054;2024-03-23T10:26:39;19.65;;;2.50;;
48823;SDS011;34640;53.590;10.054;2024-03-23T10:29:11;15.18;;;2.33;;
48823;SDS011;34640;53.590;10.054;2024-03-23T10:31:44;12.23;;;2.08;;
48823;SDS011;34640;53.590;10.054;2024-03-23T10:34:19;16.58;;;2.70;;
48823;SDS011;34640;53.590;10.054;2024-03-23T10:36:57;17.38;;;1.55;;
48823;SDS011;34640;53.590;10.054;2024-03-23T10:39:30;16.83;;;2.65;;
48823;SDS011;34640;53.590;10.054;2024-03-23T10:42:04;22.38;;;1.95;;
48823;SDS011;34640;53.590;10.054;2024-03-23T10:44:36;13.50;;;1.88;;
48823;SDS011;34640;53.590;10.054;2024-03-23T10:47:10;16.90;;;2.40;;
48823;SDS011;34640;53.590;10.054;2024-03-23T10:49:41;13.07;;;2.00;;
48823;SDS011;34640;53.590;10.054;2024-03-23T10:52:13;14.15;;;2.20;;
48823;SDS011;34640;53.590;10.054;2024-03-23T10:54:44;13.57;;;2.10;;
48823;SDS011;34640;53.590;10.054;2024-03-23T10:57:20;12.63;;;1.77;;
48823;SDS011;34640;53.590;10.054;2024-03-23T10:59:57;12.13;;;1.70;;
48823;SDS011;34640;53.590;10.054;2024-03-23T11:02:31;14.70;;;1.80;;
48823;SDS011;34640;53.590;10.054;2024-03-23T11:05:05;9.27;;;1.67;;
48823;SDS011;34640;53.590;10.054;2024-03-23T11:08:00;14.70;;;2.10;;
48823;SDS011;34640;53.590;10.054;2024-03-23T11:10:32;13.90;;;1.85;;
48823;SDS011;34640;53.590;10.054;2024-03-23T11:13:21;9.60;;;1.42;;
48823;SDS011;34640;53.590;10.054;2024-03-23T11:15:52;17.13;;;2.50;;
48823;SDS011;34640;53.590;10.054;2024-03-23T11:18:27;12.68;;;2.58;;
48823;SDS011;34640;53.590;10.054;2024-03-23T11:20:58;13.07;;;2.08;;
48823;SDS011;34640;53.590;10.054;2024-03-23T11:23:30;9.98;;;1.42;;
48823;SDS011;34640;53.590;10.054;2024-03-23T11:26:02;8.77;;;1.40;;
48823;SDS011;34640;53.590;10.054;2024-03-23T11:28:34;14.80;;;2.47;;
48823;SDS011;34640;53.590;10.054;2024-03-23T11:31:09;7.85;;;1.30;;
48823;SDS011;34640;53.590;10.054;2024-03-23T11:33:43;9.73;;;1.67;;
48823;SDS011;34640;53.590;10.054;2024-03-23T11:36:18;9.13;;;1.52;;
48823;SDS011;34640;53.590;10.054;2024-03-23T11:38:50;9.57;;;1.27;;
48823;SDS011;34640;53.590;10.054;2024-03-23T11:41:21;5.82;;;1.02;;
48823;SDS011;34640;53.590;10.054;2024-03-23T11:43:53;13.35;;;1.88;;
48823;SDS011;34640;53.590;10.054;2024-03-23T11:46:26;9.80;;;1.85;;
48823;SDS011;34640;53.590;10.054;2024-03-23T11:49:00;13.27;;;1.98;;
48823;SDS011;34640;53.590;10.054;2024-03-23T11:51:31;11.13;;;1.60;;
48823;SDS011;34640;53.590;10.054;2024-03-23T11:54:07;10.52;;;1.63;;
48823;SDS011;34640;53.590;10.054;2024-03-23T11:56:38;12.02;;;1.63;;
48823;SDS011;34640;53.590;10.054;2024-03-23T11:59:11;11.30;;;1.48;;
48823;SDS011;34640;53.590;10.054;2024-03-23T12:01:42;9.13;;;1.52;;
48823;SDS011;34640;53.590;10.054;2024-03-23T12:04:25;11.88;;;1.88;;
48823;SDS011;34640;53.590;10.054;2024-03-23T12:07:10;12.80;;;1.58;;
48823;SDS011;34640;53.590;10.054;2024-03-23T12:09:43;4.25;;;0.98;;
48823;SDS011;34640;53.590;10.054;2024-03-23T12:12:17;8.13;;;0.70;;
48823;SDS011;34640;53.590;10.054;2024-03-23T12:15:00;5.20;;;0.60;;
48823;SDS011;34640;53.590;10.054;2024-03-23T12:17:32;3.50;;;0.57;;
48823;SDS011;34640;53.590;10.054;2024-03-23T12:20:08;3.50;;;0.52;;
48823;SDS011;34640;53.590;10.054;2024-03-23T12:22:39;9.63;;;1.23;;
48823;SDS011;34640;53.590;10.054;2024-03-23T12:25:12;6.53;;;0.80;;
48823;SDS011;34640;53.590;10.054;2024-03-23T12:27:43;6.30;;;0.98;;
48823;SDS011;34640;53.590;10.054;2024-03-23T12:30:15;3.72;;;0.90;;
48823;SDS011;34640;53.590;10.054;2024-03-23T12:32:46;8.48;;;1.23;;
48823;SDS011;34640;53.590;10.054;2024-03-23T12:35:20;4.07;;;0.98;;
48823;SDS011;34640;53.590;10.054;2024-03-23T12:37:51;8.95;;;1.20;;
48823;SDS011;34640;53.590;10.054;2024-03-23T12:40:23;6.28;;;0.90;;
48823;SDS011;34640;53.590;10.054;2024-03-23T12:42:54;6.13;;;1.15;;
48823;SDS011;34640;53.590;10.054;2024-03-23T12:45:26;5.43;;;1.00;;
48823;SDS011;34640;53.590;10.054;2024-03-23T12:47:57;6.18;;;0.88;;
48823;SDS011;34640;53.590;10.054;2024-03-23T12:50:31;2.63;;;0.65;;
48823;SDS011;34640;53.590;10.054;2024-03-23T12:53:02;2.13;;;0.50;;
48823;SDS011;34640;53.590;10.054;2024-03-23T12:55:34;1.00;;;0.40;;
48823;SDS011;34640;53.590;10.054;2024-03-23T12:58:06;1.60;;;0.45;;
48823;SDS011;34640;53.590;10.054;2024-03-23T13:00:39;4.00;;;0.50;;
48823;SDS011;34640;53.590;10.054;2024-03-23T13:03:13;3.50;;;0.60;;
48823;SDS011;34640;53.590;10.054;2024-03-23T13:05:52;4.78;;;0.68;;
48823;SDS011;34640;53.590;10.054;2024-03-23T13:08:23;2.38;;;0.75;;
48823;SDS011;34640;53.590;10.054;2024-03-23T13:10:55;5.15;;;1.02;;
48823;SDS011;34640;53.590;10.054;2024-03-23T13:13:26;2.92;;;0.50;;
48823;SDS011;34640;53.590;10.054;2024-03-23T13:15:58;5.13;;;0.70;;
48823;SDS011;34640;53.590;10.054;2024-03-23T13:18:29;3.30;;;0.57;;
48823;SDS011;34640;53.590;10.054;2024-03-23T13:21:03;5.25;;;0.73;;
48823;SDS011;34640;53.590;10.054;2024-03-23T13:23:36;5.35;;;1.52;;
48823;SDS011;34640;53.590;10.054;2024-03-23T13:26:09;10.50;;;1.02;;
48823;SDS011;34640;53.590;10.054;2024-03-23T13:28:42;3.70;;;0.77;;
48823;SDS011;34640;53.590;10.054;2024-03-23T13:31:15;6.80;;;1.10;;
48823;SDS011;34640;53.590;10.054;2024-03-23T13:33:47;5.43;;;1.20;;
48823;SDS011;34640;53.590;10.054;2024-03-23T13:36:21;5.75;;;0.80;;
48823;SDS011;34640;53.590;10.054;2024-03-23T13:38:53;5.20;;;0.90;;
48823;SDS011;34640;53.590;10.054;2024-03-23T13:41:25;8.23;;;1.00;;
48823;SDS011;34640;53.590;10.054;2024-03-23T13:43:56;6.40;;;1.48;;
48823;SDS011;34640;53.590;10.054;2024-03-23T13:46:28;7.18;;;1.40;;
48823;SDS011;34640;53.590;10.054;2024-03-23T13:48:59;10.23;;;1.52;;
48823;SDS011;34640;53.590;10.054;2024-03-23T13:51:33;9.07;;;1.38;;
48823;SDS011;34640;53.590;10.054;2024-03-23T13:54:05;6.40;;;1.30;;
48823;SDS011;34640;53.590;10.054;2024-03-23T13:56:38;6.85;;;1.50;;
48823;SDS011;34640;53.590;10.054;2024-03-23T13:59:10;7.28;;;1.08;;
48823;SDS011;34640;53.590;10.054;2024-03-23T14:01:42;10.25;;;1.33;;
48823;SDS011;34640;53.590;10.054;2024-03-23T14:04:14;6.45;;;0.88;;
48823;SDS011;34640;53.590;10.054;2024-03-23T14:06:48;4.55;;;0.73;;
48823;SDS011;34640;53.590;10.054;2024-03-23T14:09:21;8.75;;;1.25;;
48823;SDS011;34640;53.590;10.054;2024-03-23T14:11:53;3.42;;;0.90;;
48823;SDS011;34640;53.590;10.054;2024-03-23T14:14:26;3.17;;;0.82;;
48823;SDS011;34640;53.590;10.054;2024-03-23T14:16:57;5.45;;;0.85;;
48823;SDS011;34640;53.590;10.054;2024-03-23T14:19:29;3.70;;;0.50;;
48823;SDS011;34640;53.590;10.054;2024-03-23T14:22:01;5.28;;;0.85;;
48823;SDS011;34640;53.590;10.054;2024-03-23T14:24:34;5.68;;;0.70;;
48823;SDS011;34640;53.590;10.054;2024-03-23T14:27:05;4.70;;;0.80;;
48823;SDS011;34640;53.590;10.054;2024-03-23T14:29:37;4.95;;;0.60;;
48823;SDS011;34640;53.590;10.054;2024-03-23T14:32:08;7.20;;;0.95;;
48823;SDS011;34640;53.590;10.054;2024-03-23T14:34:40;6.95;;;1.27;;
48823;SDS011;34640;53.590;10.054;2024-03-23T14:37:14;4.60;;;1.00;;
48823;SDS011;34640;53.590;10.054;2024-03-23T14:39:47;5.60;;;0.93;;
48823;SDS011;34640;53.590;10.054;2024-03-23T14:42:18;8.10;;;1.08;;
48823;SDS011;34640;53.590;10.054;2024-03-23T14:44:50;7.47;;;1.00;;
48823;SDS011;34640;53.590;10.054;2024-03-23T14:47:23;8.55;;;1.20;;
48823;SDS011;34640;53.590;10.054;2024-03-23T14:49:55;3.85;;;0.88;;
48823;SDS011;34640;53.590;10.054;2024-03-23T14:52:28;8.60;;;1.20;;
48823;SDS011;34640;53.590;10.054;2024-03-23T14:55:00;6.82;;;1.08;;
48823;SDS011;34640;53.590;10.054;2024-03-23T14:57:31;5.57;;;1.02;;
48823;SDS011;34640;53.590;10.054;2024-03-23T15:00:04;8.05;;;1.20;;
48823;SDS011;34640;53.590;10.054;2024-03-23T15:02:36;7.00;;;0.95;;
48823;SDS011;34640;53.590;10.054;2024-03-23T15:05:08;9.05;;;1.20;;
48823;SDS011;34640;53.590;10.054;2024-03-23T15:07:41;4.00;;;1.00;;
48823;SDS011;34640;53.590;10.054;2024-03-23T15:10:16;9.35;;;0.95;;
48823;SDS011;34640;53.590;10.054;2024-03-23T15:12:48;3.45;;;0.50;;
48823;SDS011;34640;53.590;10.054;2024-03-23T15:15:20;3.03;;;0.43;;
48823;SDS011;34640;53.590;10.054;2024-03-23T15:17:51;3.20;;;0.50;;
48823;SDS011;34640;53.590;10.054;2024-03-23T15:20:23;4.03;;;0.70;;
48823;SDS011;34640;53.590;10.054;2024-03-23T15:22:55;6.15;;;0.95;;
48823;SDS011;34640;53.590;10.054;2024-03-23T15:25:27;4.45;;;0.98;;
48823;SDS011;34640;53.590;10.054;2024-03-23T15:27:58;5.43;;;1.23;;
48823;SDS011;34640;53.590;10.054;2024-03-23T15:30:30;6.07;;;1.02;;
48823;SDS011;34640;53.590;10.054;2024-03-23T15:33:01;3.97;;;0.98;;
48823;SDS011;34640;53.590;10.054;2024-03-23T15:35:34;4.00;;;1.05;;
48823;SDS011;34640;53.590;10.054;2024-03-23T15:38:06;4.32;;;1.25;;
48823;SDS011;34640;53.590;10.054;2024-03-23T15:40:38;4.13;;;1.10;;
48823;SDS011;34640;53.590;10.054;2024-03-23T15:43:10;4.68;;;0.75;;
48823;SDS011;34640;53.590;10.054;2024-03-23T15:45:42;1.92;;;0.45;;
48823;SDS011;34640;53.590;10.054;2024-03-23T15:48:13;2.55;;;0.65;;
48823;SDS011;34640;53.590;10.054;2024-03-23T15:50:49;2.85;;;0.95;;